sensor_id;sensor_type;location;lat;lon;timestamp;pressure;altitude;pressure_sealevel;temperature;humidity
75414;BME280;64758;52.122;5.404;2023-06-24T00:01:46;102623.38;;;16.57;93.48
75414;BME280;64758;52.122;5.404;2023-06-24T00:04:12;102624.03;;;16.59;93.53
75414;BME280;64758;52.122;5.404;2023-06-24T00:06:41;102629.41;;;16.59;93.92
75414;BME280;64758;52.122;5.404;2023-06-24T00:09:08;102617.00;;;16.58;94.58
75414;BME280;64758;52.122;5.404;2023-06-24T00:11:34;102630.22;;;16.59;94.21
75414;BME280;64758;52.122;5.404;2023-06-24T00:14:01;102624.59;;;16.54;94.19
75414;BME280;64758;52.122;5.404;2023-06-24T00:16:27;102627.44;;;16.53;94.47
75414;BME280;64758;52.122;5.404;2023-06-24T00:18:55;102633.00;;;16.51;94.08
75414;BME280;64758;52.122;5.404;2023-06-24T00:21:25;102637.88;;;16.48;94.65
75414;BME280;64758;52.122;5.404;2023-06-24T00:24:04;102638.88;;;16.47;94.94
75414;BME280;64758;52.122;5.404;2023-06-24T00:26:31;102646.13;;;16.46;95.15
75414;BME280;64758;52.122;5.404;2023-06-24T00:29:01;102634.53;;;16.46;94.46
75414;BME280;64758;52.122;5.404;2023-06-24T00:31:27;102644.81;;;16.42;94.03
75414;BME280;64758;52.122;5.404;2023-06-24T00:33:54;102641.47;;;16.40;93.97
75414;BME280;64758;52.122;5.404;2023-06-24T00:36:21;102638.94;;;16.39;94.07
75414;BME280;64758;52.122;5.404;2023-06-24T00:38:47;102620.38;;;16.37;93.94
75414;BME280;64758;52.122;5.404;2023-06-24T00:41:16;102637.13;;;16.39;94.43
75414;BME280;64758;52.122;5.404;2023-06-24T00:43:45;102638.66;;;16.34;93.41
75414;BME280;64758;52.122;5.404;2023-06-24T00:46:12;102639.34;;;16.28;93.68
75414;BME280;64758;52.122;5.404;2023-06-24T00:48:40;102644.41;;;16.23;93.83
75414;BME280;64758;52.122;5.404;2023-06-24T00:51:07;102643.09;;;16.19;94.16
75414;BME280;64758;52.122;5.404;2023-06-24T00:53:33;102643.66;;;16.14;94.45
75414;BME280;64758;52.122;5.404;2023-06-24T00:56:00;102640.66;;;16.09;94.80
75414;BME280;64758;52.122;5.404;2023-06-24T00:58:31;102644.88;;;16.04;94.52
75414;BME280;64758;52.122;5.404;2023-06-24T01:00:59;102640.38;;;16.04;95.81
75414;BME280;64758;52.122;5.404;2023-06-24T01:03:26;102643.41;;;16.01;95.86
75414;BME280;64758;52.122;5.404;2023-06-24T01:05:56;102642.09;;;15.97;95.98
75414;BME280;64758;52.122;5.404;2023-06-24T01:08:23;102631.72;;;15.94;95.97
75414;BME280;64758;52.122;5.404;2023-06-24T01:10:50;102628.38;;;15.92;96.38
75414;BME280;64758;52.122;5.404;2023-06-24T01:13:19;102625.38;;;15.87;96.65
75414;BME280;64758;52.122;5.404;2023-06-24T01:15:47;102619.38;;;15.85;96.99
75414;BME280;64758;52.122;5.404;2023-06-24T01:18:22;102623.56;;;15.80;97.09
75414;BME280;64758;52.122;5.404;2023-06-24T01:21:05;102632.16;;;15.75;97.40
75414;BME280;64758;52.122;5.404;2023-06-24T01:24:13;102628.63;;;15.75;97.46
75414;BME280;64758;52.122;5.404;2023-06-24T01:32:19;102627.84;;;15.66;97.72
75414;BME280;64758;52.122;5.404;2023-06-24T01:34:59;102613.00;;;15.56;98.03
75414;BME280;64758;52.122;5.404;2023-06-24T01:37:44;102629.38;;;15.61;98.23
75414;BME280;64758;52.122;5.404;2023-06-24T01:40:28;102618.00;;;15.59;98.33
75414;BME280;64758;52.122;5.404;2023-06-24T01:42:58;102624.91;;;15.53;98.05
75414;BME280;64758;52.122;5.404;2023-06-24T01:45:32;102627.94;;;15.50;97.92
75414;BME280;64758;52.122;5.404;2023-06-24T01:48:06;102628.94;;;15.49;97.72
75414;BME280;64758;52.122;5.404;2023-06-24T01:50:35;102622.41;;;15.44;98.34
75414;BME280;64758;52.122;5.404;2023-06-24T01:53:07;102627.13;;;15.42;98.10
75414;BME280;64758;52.122;5.404;2023-06-24T01:55:36;102623.31;;;15.36;98.04
75414;BME280;64758;52.122;5.404;2023-06-24T01:58:05;102614.97;;;15.32;98.46
75414;BME280;64758;52.122;5.404;2023-06-24T02:00:33;102624.31;;;15.35;98.41
75414;BME280;64758;52.122;5.404;2023-06-24T02:03:04;102618.09;;;15.35;98.59
75414;BME280;64758;52.122;5.404;2023-06-24T02:05:31;102621.63;;;15.35;98.65
75414;BME280;64758;52.122;5.404;2023-06-24T02:07:59;102620.97;;;15.33;98.69
75414;BME280;64758;52.122;5.404;2023-06-24T02:10:28;102610.91;;;15.35;98.81
75414;BME280;64758;52.122;5.404;2023-06-24T02:12:56;102614.78;;;15.33;98.74
75414;BME280;64758;52.122;5.404;2023-06-24T02:15:23;102613.47;;;15.29;98.62
75414;BME280;64758;52.122;5.404;2023-06-24T02:17:52;102610.97;;;15.28;98.61
75414;BME280;64758;52.122;5.404;2023-06-24T02:20:23;102604.25;;;15.24;98.56
75414;BME280;64758;52.122;5.404;2023-06-24T02:22:54;102608.94;;;15.22;98.46
75414;BME280;64758;52.122;5.404;2023-06-24T02:25:21;102612.81;;;15.19;98.31
75414;BME280;64758;52.122;5.404;2023-06-24T02:27:49;102609.81;;;15.14;97.82
75414;BME280;64758;52.122;5.404;2023-06-24T02:30:16;102605.63;;;15.12;97.92
75414;BME280;64758;52.122;5.404;2023-06-24T02:32:43;102604.31;;;15.08;97.92
75414;BME280;64758;52.122;5.404;2023-06-24T02:35:09;102608.31;;;15.04;98.69
75414;BME280;64758;52.122;5.404;2023-06-24T02:37:36;102606.50;;;15.04;98.25
75414;BME280;64758;52.122;5.404;2023-06-24T02:40:03;102595.28;;;15.01;99.04
75414;BME280;64758;52.122;5.404;2023-06-24T02:42:31;102587.59;;;14.98;98.66
75414;BME280;64758;52.122;5.404;2023-06-24T02:44:58;102588.78;;;14.95;99.04
75414;BME280;64758;52.122;5.404;2023-06-24T02:47:26;102596.97;;;14.94;98.42
75414;BME280;64758;52.122;5.404;2023-06-24T02:49:54;102603.84;;;14.96;98.86
75414;BME280;64758;52.122;5.404;2023-06-24T02:52:24;102602.34;;;14.94;98.72
75414;BME280;64758;52.122;5.404;2023-06-24T02:54:50;102601.66;;;14.92;98.58
75414;BME280;64758;52.122;5.404;2023-06-24T02:57:17;102603.00;;;14.88;98.44
75414;BME280;64758;52.122;5.404;2023-06-24T02:59:46;102595.50;;;14.83;98.87
75414;BME280;64758;52.122;5.404;2023-06-24T03:02:14;102598.53;;;14.80;98.63
75414;BME280;64758;52.122;5.404;2023-06-24T03:04:43;102599.53;;;14.79;99.04
75414;BME280;64758;52.122;5.404;2023-06-24T03:07:11;102593.88;;;14.74;99.10
75414;BME280;64758;52.122;5.404;2023-06-24T03:09:37;102590.88;;;14.69;99.28
75414;BME280;64758;52.122;5.404;2023-06-24T03:12:05;102604.06;;;14.63;99.33
75414;BME280;64758;52.122;5.404;2023-06-24T03:14:32;102593.03;;;14.58;99.16
75414;BME280;64758;52.122;5.404;2023-06-24T03:16:59;102589.69;;;14.56;99.91
75414;BME280;64758;52.122;5.404;2023-06-24T03:19:25;102596.22;;;14.53;99.59
75414;BME280;64758;52.122;5.404;2023-06-24T03:21:52;102593.38;;;14.55;99.53
75414;BME280;64758;52.122;5.404;2023-06-24T03:24:18;102600.56;;;14.54;99.77
75414;BME280;64758;52.122;5.404;2023-06-24T03:26:45;102593.03;;;14.50;100.00
75414;BME280;64758;52.122;5.404;2023-06-24T03:29:12;102598.25;;;14.51;100.00
75414;BME280;64758;52.122;5.404;2023-06-24T03:31:38;102605.41;;;14.51;100.00
75414;BME280;64758;52.122;5.404;2023-06-24T03:34:10;102608.41;;;14.48;99.81
75414;BME280;64758;52.122;5.404;2023-06-24T03:36:37;102613.28;;;14.44;100.00
75414;BME280;64758;52.122;5.404;2023-06-24T03:39:05;102613.28;;;14.44;99.56
75414;BME280;64758;52.122;5.404;2023-06-24T03:41:31;102610.75;;;14.43;99.05
75414;BME280;64758;52.122;5.404;2023-06-24T03:43:58;102615.78;;;14.38;99.71
75414;BME280;64758;52.122;5.404;2023-06-24T03:46:24;102606.94;;;14.37;99.64
75414;BME280;64758;52.122;5.404;2023-06-24T03:48:52;102608.09;;;14.35;99.31
75414;BME280;64758;52.122;5.404;2023-06-24T03:51:18;102607.59;;;14.31;99.80
75414;BME280;64758;52.122;5.404;2023-06-24T03:53:45;102610.63;;;14.36;100.00
75414;BME280;64758;52.122;5.404;2023-06-24T03:56:12;102610.44;;;14.38;100.00
75414;BME280;64758;52.122;5.404;2023-06-24T03:58:38;102602.41;;;14.38;99.85
75414;BME280;64758;52.122;5.404;2023-06-24T04:01:05;102603.41;;;14.45;100.00
75414;BME280;64758;52.122;5.404;2023-06-24T04:03:31;102612.44;;;14.52;100.00
75414;BME280;64758;52.122;5.404;2023-06-24T04:05:58;102612.75;;;14.57;100.00
75414;BME280;64758;52.122;5.404;2023-06-24T04:08:25;102604.41;;;14.60;100.00
75414;BME280;64758;52.122;5.404;2023-06-24T04:10:56;102609.41;;;14.63;98.95
75414;BME280;64758;52.122;5.404;2023-06-24T04:13:23;102605.25;;;14.68;99.24
75414;BME280;64758;52.122;5.404;2023-06-24T04:15:49;102620.09;;;14.71;98.80
75414;BME280;64758;52.122;5.404;2023-06-24T04:18:16;102615.25;;;14.74;98.74
75414;BME280;64758;52.122;5.404;2023-06-24T04:20:42;102616.09;;;14.75;98.77
75414;BME280;64758;52.122;5.404;2023-06-24T04:23:09;102619.44;;;14.77;97.99
75414;BME280;64758;52.122;5.404;2023-06-24T04:25:37;102612.41;;;14.76;97.65
75414;BME280;64758;52.122;5.404;2023-06-24T04:28:03;102615.06;;;14.84;98.03
75414;BME280;64758;52.122;5.404;2023-06-24T04:30:31;102618.75;;;14.83;98.26
75414;BME280;64758;52.122;5.404;2023-06-24T04:32:58;102611.56;;;14.91;98.59
75414;BME280;64758;52.122;5.404;2023-06-24T04:35:25;102617.69;;;15.00;98.60
75414;BME280;64758;52.122;5.404;2023-06-24T04:37:51;102614.84;;;15.09;98.34
75414;BME280;64758;52.122;5.404;2023-06-24T04:40:18;102614.16;;;15.15;98.23
75414;BME280;64758;52.122;5.404;2023-06-24T04:42:45;102617.81;;;15.22;98.50
75414;BME280;64758;52.122;5.404;2023-06-24T04:45:12;102604.91;;;15.26;98.59
75414;BME280;64758;52.122;5.404;2023-06-24T04:47:39;102612.94;;;15.33;98.62
75414;BME280;64758;52.122;5.404;2023-06-24T04:50:06;102617.91;;;15.44;98.85
75414;BME280;64758;52.122;5.404;2023-06-24T04:52:32;102621.22;;;15.54;98.84
75414;BME280;64758;52.122;5.404;2023-06-24T04:54:59;102619.16;;;15.64;98.08
75414;BME280;64758;52.122;5.404;2023-06-24T04:57:31;102619.22;;;15.79;97.79
75414;BME280;64758;52.122;5.404;2023-06-24T04:59:58;102612.16;;;15.86;97.25
75414;BME280;64758;52.122;5.404;2023-06-24T05:02:24;102609.56;;;16.00;96.52
75414;BME280;64758;52.122;5.404;2023-06-24T05:04:52;102628.94;;;16.10;97.02
75414;BME280;64758;52.122;5.404;2023-06-24T05:07:19;102630.34;;;16.21;96.34
75414;BME280;64758;52.122;5.404;2023-06-24T05:09:46;102622.91;;;16.31;96.70
75414;BME280;64758;52.122;5.404;2023-06-24T05:12:13;102624.88;;;16.37;95.84
75414;BME280;64758;52.122;5.404;2023-06-24T05:14:40;102639.09;;;16.45;94.98
75414;BME280;64758;52.122;5.404;2023-06-24T05:17:07;102635.38;;;16.46;94.86
75414;BME280;64758;52.122;5.404;2023-06-24T05:19:33;102631.03;;;16.45;95.70
75414;BME280;64758;52.122;5.404;2023-06-24T05:22:00;102629.75;;;16.56;95.07
75414;BME280;64758;52.122;5.404;2023-06-24T05:24:26;102640.50;;;16.70;94.22
75414;BME280;64758;52.122;5.404;2023-06-24T05:26:53;102626.19;;;16.77;92.92
75414;BME280;64758;52.122;5.404;2023-06-24T05:29:20;102630.91;;;16.90;92.18
75414;BME280;64758;52.122;5.404;2023-06-24T05:31:46;102622.41;;;17.01;91.66
75414;BME280;64758;52.122;5.404;2023-06-24T05:34:13;102624.91;;;17.17;90.49
75414;BME280;64758;52.122;5.404;2023-06-24T05:36:39;102624.28;;;17.29;89.05
75414;BME280;64758;52.122;5.404;2023-06-24T05:39:06;102624.66;;;17.41;88.67
75414;BME280;64758;52.122;5.404;2023-06-24T05:41:34;102622.16;;;17.54;88.51
75414;BME280;64758;52.122;5.404;2023-06-24T05:44:07;102627.03;;;17.65;87.48
75414;BME280;64758;52.122;5.404;2023-06-24T05:46:34;102639.81;;;17.77;86.89
75414;BME280;64758;52.122;5.404;2023-06-24T05:49:00;102635.41;;;17.91;86.79
75414;BME280;64758;52.122;5.404;2023-06-24T05:51:27;102643.81;;;18.02;86.30
75414;BME280;64758;52.122;5.404;2023-06-24T05:53:54;102631.91;;;18.11;85.94
75414;BME280;64758;52.122;5.404;2023-06-24T05:56:21;102641.63;;;18.26;85.07
75414;BME280;64758;52.122;5.404;2023-06-24T05:58:49;102639.06;;;18.39;84.18
75414;BME280;64758;52.122;5.404;2023-06-24T06:01:15;102636.66;;;18.51;83.91
75414;BME280;64758;52.122;5.404;2023-06-24T06:03:42;102630.75;;;18.62;83.20
75414;BME280;64758;52.122;5.404;2023-06-24T06:06:09;102646.19;;;18.74;81.81
75414;BME280;64758;52.122;5.404;2023-06-24T06:08:36;102635.91;;;18.84;82.47
75414;BME280;64758;52.122;5.404;2023-06-24T06:11:02;102640.56;;;18.97;81.68
75414;BME280;64758;52.122;5.404;2023-06-24T06:13:29;102624.88;;;19.07;81.43
75414;BME280;64758;52.122;5.404;2023-06-24T06:15:57;102624.13;;;19.19;80.82
75414;BME280;64758;52.122;5.404;2023-06-24T06:18:23;102627.13;;;19.30;79.52
75414;BME280;64758;52.122;5.404;2023-06-24T06:20:50;102630.28;;;19.40;79.86
75414;BME280;64758;52.122;5.404;2023-06-24T06:23:17;102630.94;;;19.49;77.76
75414;BME280;64758;52.122;5.404;2023-06-24T06:25:43;102626.41;;;19.56;78.14
75414;BME280;64758;52.122;5.404;2023-06-24T06:28:13;102634.94;;;19.66;77.00
75414;BME280;64758;52.122;5.404;2023-06-24T06:30:40;102635.78;;;19.73;77.10
75414;BME280;64758;52.122;5.404;2023-06-24T06:33:06;102636.47;;;19.81;76.04
75414;BME280;64758;52.122;5.404;2023-06-24T06:35:33;102635.44;;;19.89;75.64
75414;BME280;64758;52.122;5.404;2023-06-24T06:38:00;102632.97;;;19.94;75.25
75414;BME280;64758;52.122;5.404;2023-06-24T06:40:26;102625.34;;;20.04;74.55
75414;BME280;64758;52.122;5.404;2023-06-24T06:42:54;102628.06;;;20.17;74.57
75414;BME280;64758;52.122;5.404;2023-06-24T06:45:21;102630.38;;;20.26;73.88
75414;BME280;64758;52.122;5.404;2023-06-24T06:47:49;102633.69;;;20.35;73.61
75414;BME280;64758;52.122;5.404;2023-06-24T06:50:17;102631.22;;;20.40;71.72
75414;BME280;64758;52.122;5.404;2023-06-24T06:52:43;102636.19;;;20.49;71.99
75414;BME280;64758;52.122;5.404;2023-06-24T06:55:10;102635.78;;;20.58;71.78
75414;BME280;64758;52.122;5.404;2023-06-24T06:57:36;102635.59;;;20.66;71.67
75414;BME280;64758;52.122;5.404;2023-06-24T07:00:03;102627.88;;;20.76;70.91
75414;BME280;64758;52.122;5.404;2023-06-24T07:02:30;102623.75;;;20.87;71.17
75414;BME280;64758;52.122;5.404;2023-06-24T07:04:57;102623.09;;;20.98;69.28
75414;BME280;64758;52.122;5.404;2023-06-24T07:07:23;102628.72;;;21.03;69.84
75414;BME280;64758;52.122;5.404;2023-06-24T07:09:50;102627.25;;;21.13;69.53
75414;BME280;64758;52.122;5.404;2023-06-24T07:12:17;102626.38;;;21.26;68.14
75414;BME280;64758;52.122;5.404;2023-06-24T07:14:43;102631.53;;;21.34;67.97
75414;BME280;64758;52.122;5.404;2023-06-24T07:17:10;102632.97;;;21.49;68.46
75414;BME280;64758;52.122;5.404;2023-06-24T07:19:36;102622.94;;;21.56;68.04
75414;BME280;64758;52.122;5.404;2023-06-24T07:22:03;102626.50;;;21.63;66.29
75414;BME280;64758;52.122;5.404;2023-06-24T07:24:30;102641.81;;;21.76;66.18
75414;BME280;64758;52.122;5.404;2023-06-24T07:26:56;102636.16;;;21.77;66.64
75414;BME280;64758;52.122;5.404;2023-06-24T07:29:23;102635.06;;;21.91;66.76
75414;BME280;64758;52.122;5.404;2023-06-24T07:31:49;102632.09;;;21.99;66.29
75414;BME280;64758;52.122;5.404;2023-06-24T07:34:16;102637.22;;;22.13;65.09
75414;BME280;64758;52.122;5.404;2023-06-24T07:36:42;102637.16;;;22.26;65.65
75414;BME280;64758;52.122;5.404;2023-06-24T07:39:09;102635.00;;;22.35;65.47
75414;BME280;64758;52.122;5.404;2023-06-24T07:41:35;102645.59;;;22.43;64.26
75414;BME280;64758;52.122;5.404;2023-06-24T07:44:02;102638.66;;;22.53;63.79
75414;BME280;64758;52.122;5.404;2023-06-24T07:46:29;102632.94;;;22.61;62.34
75414;BME280;64758;52.122;5.404;2023-06-24T07:48:56;102632.06;;;22.67;63.96
75414;BME280;64758;52.122;5.404;2023-06-24T07:51:22;102635.09;;;22.77;62.15
75414;BME280;64758;52.122;5.404;2023-06-24T07:53:49;102629.44;;;22.79;62.11
75414;BME280;64758;52.122;5.404;2023-06-24T07:56:16;102626.00;;;22.90;62.66
75414;BME280;64758;52.122;5.404;2023-06-24T07:58:42;102624.44;;;23.00;59.82
75414;BME280;64758;52.122;5.404;2023-06-24T08:01:09;102623.78;;;23.05;59.41
75414;BME280;64758;52.122;5.404;2023-06-24T08:03:36;102625.16;;;23.14;60.10
75414;BME280;64758;52.122;5.404;2023-06-24T08:06:03;102613.63;;;23.18;59.16
75414;BME280;64758;52.122;5.404;2023-06-24T08:08:30;102608.59;;;23.22;58.40
75414;BME280;64758;52.122;5.404;2023-06-24T08:10:57;102622.47;;;23.31;58.62
75414;BME280;64758;52.122;5.404;2023-06-24T08:13:23;102621.09;;;23.40;58.66
75414;BME280;64758;52.122;5.404;2023-06-24T08:15:50;102608.88;;;23.49;57.40
75414;BME280;64758;52.122;5.404;2023-06-24T08:18:16;102619.03;;;23.54;58.39
75414;BME280;64758;52.122;5.404;2023-06-24T08:20:43;102608.94;;;23.61;58.03
75414;BME280;64758;52.122;5.404;2023-06-24T08:23:09;102612.38;;;23.68;57.21
75414;BME280;64758;52.122;5.404;2023-06-24T08:25:36;102621.88;;;23.77;57.38
75414;BME280;64758;52.122;5.404;2023-06-24T08:28:03;102612.63;;;23.84;55.49
75414;BME280;64758;52.122;5.404;2023-06-24T08:30:30;102611.19;;;23.82;56.59
75414;BME280;64758;52.122;5.404;2023-06-24T08:32:56;102616.03;;;23.80;56.87
75414;BME280;64758;52.122;5.404;2023-06-24T08:35:23;102620.47;;;23.74;56.71
75414;BME280;64758;52.122;5.404;2023-06-24T08:37:49;102608.31;;;23.77;57.44
75414;BME280;64758;52.122;5.404;2023-06-24T08:40:17;102611.31;;;23.87;56.85
75414;BME280;64758;52.122;5.404;2023-06-24T08:42:43;102618.94;;;23.96;56.62
75414;BME280;64758;52.122;5.404;2023-06-24T08:45:10;102615.28;;;24.02;56.09
75414;BME280;64758;52.122;5.404;2023-06-24T08:47:37;102620.63;;;24.09;55.29
75414;BME280;64758;52.122;5.404;2023-06-24T08:50:07;102612.00;;;24.12;54.85
75414;BME280;64758;52.122;5.404;2023-06-24T08:52:36;102610.00;;;24.07;55.69
75414;BME280;64758;52.122;5.404;2023-06-24T08:55:04;102606.69;;;24.05;55.94
75414;BME280;64758;52.122;5.404;2023-06-24T08:57:32;102606.94;;;24.15;56.84
75414;BME280;64758;52.122;5.404;2023-06-24T08:59:59;102604.72;;;24.24;55.42
75414;BME280;64758;52.122;5.404;2023-06-24T09:02:25;102613.72;;;24.36;55.35
75414;BME280;64758;52.122;5.404;2023-06-24T09:04:53;102605.22;;;24.44;55.75
75414;BME280;64758;52.122;5.404;2023-06-24T09:07:25;102605.69;;;24.41;55.37
75414;BME280;64758;52.122;5.404;2023-06-24T09:09:53;102612.41;;;24.38;54.62
75414;BME280;64758;52.122;5.404;2023-06-24T09:12:20;102612.78;;;24.42;55.84
75414;BME280;64758;52.122;5.404;2023-06-24T09:14:50;102605.13;;;24.50;55.96
75414;BME280;64758;52.122;5.404;2023-06-24T09:17:17;102596.16;;;24.61;55.42
75414;BME280;64758;52.122;5.404;2023-06-24T09:19:44;102599.13;;;24.71;55.51
75414;BME280;64758;52.122;5.404;2023-06-24T09:22:10;102599.03;;;24.77;55.78
75414;BME280;64758;52.122;5.404;2023-06-24T09:24:48;102597.34;;;24.88;55.41
75414;BME280;64758;52.122;5.404;2023-06-24T09:27:16;102590.25;;;24.98;55.13
75414;BME280;64758;52.122;5.404;2023-06-24T09:29:45;102587.63;;;25.15;53.40
75414;BME280;64758;52.122;5.404;2023-06-24T09:32:13;102600.66;;;25.24;53.81
75414;BME280;64758;52.122;5.404;2023-06-24T09:34:40;102596.50;;;25.33;54.87
75414;BME280;64758;52.122;5.404;2023-06-24T09:37:06;102590.09;;;25.39;52.00
75414;BME280;64758;52.122;5.404;2023-06-24T09:39:37;102590.78;;;25.46;53.14
75414;BME280;64758;52.122;5.404;2023-06-24T09:42:05;102590.03;;;25.51;51.60
75414;BME280;64758;52.122;5.404;2023-06-24T09:44:33;102586.84;;;25.54;51.14
75414;BME280;64758;52.122;5.404;2023-06-24T09:47:00;102591.91;;;25.62;51.85
75414;BME280;64758;52.122;5.404;2023-06-24T09:49:27;102589.03;;;25.68;51.82
75414;BME280;64758;52.122;5.404;2023-06-24T09:51:58;102585.69;;;25.78;51.89
75414;BME280;64758;52.122;5.404;2023-06-24T09:54:27;102580.22;;;25.78;50.95
75414;BME280;64758;52.122;5.404;2023-06-24T09:57:01;102575.59;;;25.78;53.70
75414;BME280;64758;52.122;5.404;2023-06-24T09:59:30;102575.72;;;25.83;52.65
75414;BME280;64758;52.122;5.404;2023-06-24T10:01:57;102575.09;;;25.93;50.62
75414;BME280;64758;52.122;5.404;2023-06-24T10:04:24;102571.88;;;25.96;52.45
75414;BME280;64758;52.122;5.404;2023-06-24T10:06:52;102569.97;;;25.96;51.77
75414;BME280;64758;52.122;5.404;2023-06-24T10:09:19;102570.50;;;26.09;50.28
75414;BME280;64758;52.122;5.404;2023-06-24T10:11:47;102578.34;;;26.22;50.80
75414;BME280;64758;52.122;5.404;2023-06-24T10:14:14;102581.25;;;26.32;49.73
75414;BME280;64758;52.122;5.404;2023-06-24T10:16:42;102579.19;;;26.39;49.76
75414;BME280;64758;52.122;5.404;2023-06-24T10:19:09;102578.81;;;26.47;48.69
75414;BME280;64758;52.122;5.404;2023-06-24T10:21:57;102570.22;;;26.55;49.71
75414;BME280;64758;52.122;5.404;2023-06-24T10:24:32;102564.91;;;26.65;50.42
75414;BME280;64758;52.122;5.404;2023-06-24T10:27:03;102560.34;;;26.71;49.54
75414;BME280;64758;52.122;5.404;2023-06-24T10:29:31;102553.31;;;26.75;50.07
75414;BME280;64758;52.122;5.404;2023-06-24T10:32:02;102552.09;;;26.87;50.02
75414;BME280;64758;52.122;5.404;2023-06-24T10:42:40;102553.00;;;26.71;49.36
75414;BME280;64758;52.122;5.404;2023-06-24T10:50:06;102542.66;;;26.73;49.34
75414;BME280;64758;52.122;5.404;2023-06-24T10:52:37;102538.09;;;26.79;49.15
75414;BME280;64758;52.122;5.404;2023-06-24T10:55:05;102539.50;;;27.03;47.75
75414;BME280;64758;52.122;5.404;2023-06-24T10:57:32;102539.44;;;26.98;48.41
75414;BME280;64758;52.122;5.404;2023-06-24T10:59:58;102540.38;;;26.87;48.76
75414;BME280;64758;52.122;5.404;2023-06-24T11:02:27;102533.72;;;26.78;49.04
75414;BME280;64758;52.122;5.404;2023-06-24T11:04:59;102533.06;;;26.92;48.54
75414;BME280;64758;52.122;5.404;2023-06-24T11:07:28;102538.38;;;27.20;47.78
75414;BME280;64758;52.122;5.404;2023-06-24T11:09:58;102534.88;;;27.46;47.81
75414;BME280;64758;52.122;5.404;2023-06-24T11:12:26;102531.06;;;27.47;47.80
75414;BME280;64758;52.122;5.404;2023-06-24T11:14:57;102525.53;;;27.42;48.56
75414;BME280;64758;52.122;5.404;2023-06-24T11:17:25;102527.53;;;27.25;50.72
75414;BME280;64758;52.122;5.404;2023-06-24T11:19:53;102528.75;;;27.13;50.42
75414;BME280;64758;52.122;5.404;2023-06-24T11:22:20;102536.22;;;27.01;49.12
75414;BME280;64758;52.122;5.404;2023-06-24T11:24:47;102532.91;;;26.77;49.38
75414;BME280;64758;52.122;5.404;2023-06-24T11:27:13;102537.13;;;26.68;49.44
75414;BME280;64758;52.122;5.404;2023-06-24T11:29:40;102531.06;;;26.83;49.43
75414;BME280;64758;52.122;5.404;2023-06-24T11:32:07;102535.22;;;27.07;48.69
75414;BME280;64758;52.122;5.404;2023-06-24T11:34:35;102519.56;;;27.19;49.35
75414;BME280;64758;52.122;5.404;2023-06-24T11:37:13;102525.50;;;27.37;49.34
75414;BME280;64758;52.122;5.404;2023-06-24T11:39:39;102517.84;;;27.60;49.80
75414;BME280;64758;52.122;5.404;2023-06-24T11:42:10;102509.09;;;27.85;48.64
75414;BME280;64758;52.122;5.404;2023-06-24T11:44:43;102504.97;;;28.14;47.93
75414;BME280;64758;52.122;5.404;2023-06-24T11:47:11;102507.34;;;28.37;45.40
75414;BME280;64758;52.122;5.404;2023-06-24T11:49:51;102506.41;;;28.58;44.18
75414;BME280;64758;52.122;5.404;2023-06-24T11:52:42;102507.69;;;28.50;43.41
75414;BME280;64758;52.122;5.404;2023-06-24T11:55:16;102502.38;;;28.29;44.10
75414;BME280;64758;52.122;5.404;2023-06-24T11:58:03;102507.69;;;28.14;45.02
75414;BME280;64758;52.122;5.404;2023-06-24T12:00:38;102502.63;;;27.96;45.74
75414;BME280;64758;52.122;5.404;2023-06-24T12:03:06;102510.78;;;27.91;47.51
75414;BME280;64758;52.122;5.404;2023-06-24T12:05:38;102509.81;;;27.75;47.08
75414;BME280;64758;52.122;5.404;2023-06-24T12:08:10;102503.16;;;27.66;46.62
75414;BME280;64758;52.122;5.404;2023-06-24T12:10:37;102496.75;;;27.56;48.47
75414;BME280;64758;52.122;5.404;2023-06-24T12:13:05;102508.34;;;27.41;49.97
75414;BME280;64758;52.122;5.404;2023-06-24T12:15:32;102500.63;;;27.33;48.74
75414;BME280;64758;52.122;5.404;2023-06-24T12:18:00;102491.81;;;27.27;48.13
75414;BME280;64758;52.122;5.404;2023-06-24T12:20:29;102498.28;;;27.21;50.50
75414;BME280;64758;52.122;5.404;2023-06-24T12:23:00;102495.34;;;27.06;49.42
75414;BME280;64758;52.122;5.404;2023-06-24T12:25:27;102493.63;;;27.00;49.80
75414;BME280;64758;52.122;5.404;2023-06-24T12:27:53;102496.88;;;26.97;49.73
75414;BME280;64758;52.122;5.404;2023-06-24T12:30:20;102491.66;;;26.95;50.40
75414;BME280;64758;52.122;5.404;2023-06-24T12:32:50;102483.97;;;26.92;50.56
75414;BME280;64758;52.122;5.404;2023-06-24T12:35:17;102486.13;;;26.90;50.87
75414;BME280;64758;52.122;5.404;2023-06-24T12:37:43;102486.06;;;26.85;50.18
75414;BME280;64758;52.122;5.404;2023-06-24T12:40:12;102485.50;;;26.83;50.95
75414;BME280;64758;52.122;5.404;2023-06-24T12:42:38;102484.09;;;26.81;52.00
75414;BME280;64758;52.122;5.404;2023-06-24T12:45:05;102488.16;;;26.78;53.35
75414;BME280;64758;52.122;5.404;2023-06-24T12:47:32;102479.72;;;26.80;52.89
75414;BME280;64758;52.122;5.404;2023-06-24T12:49:59;102474.84;;;26.82;51.65
75414;BME280;64758;52.122;5.404;2023-06-24T12:52:26;102474.06;;;26.86;50.76
75414;BME280;64758;52.122;5.404;2023-06-24T12:54:52;102473.38;;;26.96;51.00
75414;BME280;64758;52.122;5.404;2023-06-24T12:57:19;102468.81;;;27.01;49.58
75414;BME280;64758;52.122;5.404;2023-06-24T12:59:46;102469.47;;;27.08;50.59
75414;BME280;64758;52.122;5.404;2023-06-24T13:02:12;102461.09;;;27.15;49.37
75414;BME280;64758;52.122;5.404;2023-06-24T13:04:39;102461.53;;;27.07;52.90
75414;BME280;64758;52.122;5.404;2023-06-24T13:07:05;102464.41;;;27.00;54.82
75414;BME280;64758;52.122;5.404;2023-06-24T13:09:33;102458.28;;;26.88;53.01
75414;BME280;64758;52.122;5.404;2023-06-24T13:12:00;102458.72;;;26.80;50.58
75414;BME280;64758;52.122;5.404;2023-06-24T13:14:26;102462.53;;;26.79;52.19